Ferry Kyoto2 — JI3701 — position and weather

sailwx.info

Track history (hours):
 
Tides and Currents Weather Stations Pressure Air Temp Water Temp Dewpoint Dewpoint Depression Visibility Wind Speed Wind Dir Waves Ship Positions

Ferry Kyoto2

Last reported at 2015-Sep-01 12:33 UTC. Time now 2015-Sep-01 14:13 UTC.
Position N 34°34' E 134°49'.

Length 167 m; draft 5.9 m.

Type: Passenger vessel. MMSI: 431301641.

Date/timePositionNaut miles runAvg speedWind from/ knotsBaromVisibWave heightAir tempDewpointWater temp
2015-Sep-01 12:33N 34°34' E 134°49'2222.1
2015-Sep-01 11:34N 34°36' E 135°15'9 7.6
2015-Sep-01 10:23N 34°37' E 135°26'0 0.0
2015-Sep-01 09:23N 34°37' E 135°26'0 0.0
2015-Sep-01 08:29N 34°37' E 135°26'0 0.0
2015-Sep-01 07:29N 34°37' E 135°26'0 0.0
2015-Sep-01 06:29N 34°37' E 135°26'0 0.0
2015-Sep-01 05:23N 34°37' E 135°26'0 0.0
2015-Sep-01 04:17N 34°37' E 135°26'0 0.0
2015-Sep-01 03:29N 34°37' E 135°26'0 0.0
2015-Sep-01 02:29N 34°37' E 135°26'0 0.0
2015-Sep-01 01:23N 34°37' E 135°26'0 0.0
2015-Sep-01 00:29N 34°37' E 135°26'0 0.0
2015-Aug-31 23:29N 34°37' E 135°26'910.0
2015-Aug-31 22:33N 34°35' E 135°15'2020.3
2015-Aug-31 21:33N 34°34' E 134°50'19 0.6
2015-Aug-30 11:31N 34°36' E 135°14'0 0.0
2015-Aug-28 11:32N 34°36' E 135°13'17 0.4
2015-Aug-26 12:22N 34°35' E 134°53'1720.6
2015-Aug-26 11:34N 34°36' E 135°13'1010.3
2015-Aug-26 10:33N 34°37' E 135°26'0 0.0
2015-Aug-26 09:33N 34°37' E 135°26'0 0.0
2015-Aug-26 08:33N 34°37' E 135°26'0 0.0
2015-Aug-26 07:33N 34°37' E 135°26'0 0.0
2015-Aug-26 06:33N 34°37' E 135°26'0 0.0
2015-Aug-26 05:33N 34°37' E 135°26'0 0.0
2015-Aug-26 04:33N 34°37' E 135°26'5 5.2
2015-Aug-26 03:33N 34°36' E 135°20'5 4.4
2015-Aug-26 02:24N 34°37' E 135°26'0 0.0
2015-Aug-26 01:30N 34°37' E 135°26'8 8.3
2015-Aug-26 00:34N 34°35' E 135°17'2221.9
2015-Aug-25 23:33N 34°34' E 134°50'1 0.0
2015-Aug-24 12:28N 34°35' E 134°51'1819.1
2015-Aug-24 11:33N 34°36' E 135°12'11 9.5
2015-Aug-24 10:22N 34°37' E 135°26'0 0.0
2015-Aug-24 09:28N 34°37' E 135°26'0 0.0
2015-Aug-24 08:22N 34°37' E 135°26'0 0.0
2015-Aug-24 07:28N 34°37' E 135°26'0 0.0
2015-Aug-24 06:28N 34°37' E 135°26'0 0.0
2015-Aug-24 05:28N 34°37' E 135°26'0 0.0
2015-Aug-24 04:16N 34°37' E 135°26'0 0.0
2015-Aug-24 03:28N 34°37' E 135°26'0 0.0
2015-Aug-24 02:28N 34°37' E 135°26'0 0.0
2015-Aug-24 01:28N 34°37' E 135°26'0 0.0
2015-Aug-24 00:28N 34°37' E 135°26'0 0.0
2015-Aug-23 23:28N 34°37' E 135°26'910.2
2015-Aug-23 22:33N 34°34' E 135°15'1918.7
2015-Aug-23 21:33N 34°35' E 134°52'  
Track history (hours):
 
Tides and Currents Weather Stations Pressure Air Temp Water Temp Dewpoint Dewpoint Depression Visibility Wind Speed Wind Dir Waves Ship Positions

Ferry Kyoto2

Last reported at 2015-Sep-01 12:33 UTC. Time now 2015-Sep-01 14:13 UTC.
Position N 34°34' E 134°49'.

Length 167 m; draft 5.9 m.

Type: Passenger vessel. MMSI: 431301641.

Date/timePositionNaut miles runAvg speedWind from/ knotsBaromVisibWave heightAir tempDewpointWater temp
2015-Sep-01 12:33N 34°34' E 134°49'2222.1
2015-Sep-01 11:34N 34°36' E 135°15'9 7.6
2015-Sep-01 10:23N 34°37' E 135°26'0 0.0
2015-Sep-01 09:23N 34°37' E 135°26'0 0.0
2015-Sep-01 08:29N 34°37' E 135°26'0 0.0
2015-Sep-01 07:29N 34°37' E 135°26'0 0.0
2015-Sep-01 06:29N 34°37' E 135°26'0 0.0
2015-Sep-01 05:23N 34°37' E 135°26'0 0.0
2015-Sep-01 04:17N 34°37' E 135°26'0 0.0
2015-Sep-01 03:29N 34°37' E 135°26'0 0.0
2015-Sep-01 02:29N 34°37' E 135°26'0 0.0
2015-Sep-01 01:23N 34°37' E 135°26'0 0.0
2015-Sep-01 00:29N 34°37' E 135°26'0 0.0
2015-Aug-31 23:29N 34°37' E 135°26'910.0
2015-Aug-31 22:33N 34°35' E 135°15'2020.3
2015-Aug-31 21:33N 34°34' E 134°50'19 0.6
2015-Aug-30 11:31N 34°36' E 135°14'0 0.0
2015-Aug-28 11:32N 34°36' E 135°13'17 0.4
2015-Aug-26 12:22N 34°35' E 134°53'1720.6
2015-Aug-26 11:34N 34°36' E 135°13'1010.3
2015-Aug-26 10:33N 34°37' E 135°26'0 0.0
2015-Aug-26 09:33N 34°37' E 135°26'0 0.0
2015-Aug-26 08:33N 34°37' E 135°26'0 0.0
2015-Aug-26 07:33N 34°37' E 135°26'0 0.0
2015-Aug-26 06:33N 34°37' E 135°26'0 0.0
2015-Aug-26 05:33N 34°37' E 135°26'0 0.0
2015-Aug-26 04:33N 34°37' E 135°26'5 5.2
2015-Aug-26 03:33N 34°36' E 135°20'5 4.4
2015-Aug-26 02:24N 34°37' E 135°26'0 0.0
2015-Aug-26 01:30N 34°37' E 135°26'8 8.3
2015-Aug-26 00:34N 34°35' E 135°17'2221.9
2015-Aug-25 23:33N 34°34' E 134°50'1 0.0
2015-Aug-24 12:28N 34°35' E 134°51'1819.1
2015-Aug-24 11:33N 34°36' E 135°12'11 9.5
2015-Aug-24 10:22N 34°37' E 135°26'0 0.0
2015-Aug-24 09:28N 34°37' E 135°26'0 0.0
2015-Aug-24 08:22N 34°37' E 135°26'0 0.0
2015-Aug-24 07:28N 34°37' E 135°26'0 0.0
2015-Aug-24 06:28N 34°37' E 135°26'0 0.0
2015-Aug-24 05:28N 34°37' E 135°26'0 0.0
2015-Aug-24 04:16N 34°37' E 135°26'0 0.0
2015-Aug-24 03:28N 34°37' E 135°26'0 0.0
2015-Aug-24 02:28N 34°37' E 135°26'0 0.0
2015-Aug-24 01:28N 34°37' E 135°26'0 0.0
2015-Aug-24 00:28N 34°37' E 135°26'0 0.0
2015-Aug-23 23:28N 34°37' E 135°26'910.2
2015-Aug-23 22:33N 34°34' E 135°15'1918.7
2015-Aug-23 21:33N 34°35' E 134°52'  

Dump ship's entire track history